createdAt,value
2022-09-03T00:01:44.043Z,2.67
2022-09-03T00:04:25.732Z,2.87
2022-09-03T00:07:02.173Z,2.87
2022-09-03T00:09:39.719Z,2.60
2022-09-03T00:12:23.586Z,3.00
2022-09-03T00:14:53.883Z,3.03
2022-09-03T00:17:36.094Z,2.90
2022-09-03T00:20:15.596Z,2.67
2022-09-03T00:22:48.052Z,2.50
2022-09-03T00:25:21.026Z,3.17
2022-09-03T00:27:57.099Z,2.83
2022-09-03T00:30:24.597Z,3.17
2022-09-03T00:32:59.493Z,2.70
2022-09-03T00:35:32.323Z,2.77
2022-09-03T00:38:00.406Z,2.30
2022-09-03T00:41:03.766Z,2.80
2022-09-03T00:43:58.702Z,2.10
2022-09-03T00:46:43.986Z,2.60
2022-09-03T00:49:22.265Z,2.77
2022-09-03T00:52:11.426Z,2.43
2022-09-03T00:55:02.966Z,2.30
2022-09-03T00:57:56.964Z,2.50
2022-09-03T01:00:24.492Z,2.43
2022-09-03T01:02:54.299Z,2.20
2022-09-03T01:05:40.029Z,2.30
2022-09-03T01:08:26.456Z,2.27
2022-09-03T01:10:59.317Z,2.77
2022-09-03T01:13:47.171Z,2.33
2022-09-03T01:16:40.807Z,2.30
2022-09-03T01:19:13.757Z,2.30
2022-09-03T01:22:07.534Z,2.50
2022-09-03T01:24:53.297Z,2.17
2022-09-03T01:27:32.196Z,2.50
2022-09-03T01:30:10.920Z,2.20
2022-09-03T01:33:14.177Z,1.80
2022-09-03T01:35:48.382Z,2.30
2022-09-03T01:38:27.566Z,2.23
2022-09-03T01:41:41.712Z,2.40
2022-09-03T01:44:27.785Z,2.20
2022-09-03T01:47:11.820Z,2.40
2022-09-03T01:49:57.909Z,2.00
2022-09-03T01:52:36.876Z,2.07
2022-09-03T01:55:10.074Z,1.77
2022-09-03T01:58:14.565Z,2.30
2022-09-03T02:00:45.901Z,2.03
2022-09-03T02:03:14.358Z,1.80
2022-09-03T02:05:44.077Z,2.30
2022-09-03T02:08:11.656Z,2.10
2022-09-03T02:11:02.188Z,2.33
2022-09-03T02:13:35.391Z,2.30
2022-09-03T02:16:16.011Z,1.93
2022-09-03T02:18:57.048Z,2.30
2022-09-03T02:21:25.757Z,2.43
2022-09-03T02:23:53.016Z,2.20
2022-09-03T02:26:25.109Z,2.80
2022-09-03T02:28:54.399Z,2.30
2022-09-03T02:31:21.718Z,2.23
2022-09-03T02:33:50.880Z,2.73
2022-09-03T02:36:21.670Z,2.20
2022-09-03T02:38:52.618Z,2.27
2022-09-03T02:41:19.859Z,2.40
2022-09-03T02:43:55.252Z,2.27
2022-09-03T02:47:00.537Z,2.10
2022-09-03T02:49:28.761Z,2.10
2022-09-03T02:52:06.433Z,2.03
2022-09-03T02:54:36.046Z,2.00
2022-09-03T02:57:03.402Z,2.10
2022-09-03T02:59:30.474Z,2.20
2022-09-03T03:02:00.970Z,2.00
2022-09-03T03:04:30.615Z,2.20
2022-09-03T03:06:58.149Z,2.23
2022-09-03T03:09:25.340Z,2.23
2022-09-03T03:11:53.773Z,2.33
2022-09-03T03:14:21.426Z,2.20
2022-09-03T03:16:49.108Z,2.63
2022-09-03T03:19:16.373Z,2.00
2022-09-03T03:21:43.611Z,2.03
2022-09-03T03:24:10.885Z,2.03
2022-09-03T03:26:38.004Z,2.33
2022-09-03T03:29:05.272Z,2.07
2022-09-03T03:31:33.195Z,2.00
2022-09-03T03:34:02.793Z,2.00
2022-09-03T03:36:32.741Z,2.00
2022-09-03T03:39:01.151Z,2.13
2022-09-03T03:41:31.679Z,1.83
2022-09-03T03:44:01.716Z,1.90
2022-09-03T03:46:32.040Z,2.23
2022-09-03T03:48:59.961Z,2.10
2022-09-03T03:51:27.206Z,2.00
2022-09-03T03:53:56.608Z,1.93
2022-09-03T03:56:26.520Z,2.10
2022-09-03T03:58:54.363Z,2.40
2022-09-03T04:01:24.417Z,1.70
2022-09-03T04:03:54.795Z,2.00
2022-09-03T04:06:24.150Z,1.93
2022-09-03T04:08:51.592Z,1.90
2022-09-03T04:11:21.498Z,1.97
2022-09-03T04:13:50.333Z,2.20
2022-09-03T04:16:22.905Z,2.50
2022-09-03T04:18:50.885Z,2.10
2022-09-03T04:21:21.330Z,1.90
2022-09-03T04:23:49.954Z,2.10
2022-09-03T04:26:21.077Z,2.43
2022-09-03T04:28:48.504Z,2.20
2022-09-03T04:31:17.256Z,1.93
2022-09-03T04:33:45.766Z,2.00
2022-09-03T04:36:18.497Z,2.10
2022-09-03T04:38:47.462Z,2.17
2022-09-03T04:41:17.942Z,2.20
2022-09-03T04:43:49.365Z,2.63
2022-09-03T04:46:20.818Z,2.30
2022-09-03T04:48:51.344Z,2.40
2022-09-03T04:51:22.050Z,2.40
2022-09-03T04:53:58.363Z,2.30
2022-09-03T04:56:28.562Z,2.20
2022-09-03T04:58:58.747Z,2.20
2022-09-03T05:01:28.230Z,2.23
2022-09-03T05:03:59.722Z,1.87
2022-09-03T05:06:28.138Z,2.20
2022-09-03T05:08:56.045Z,1.90
2022-09-03T05:11:24.911Z,1.97
2022-09-03T05:13:54.361Z,2.27
2022-09-03T05:16:22.340Z,2.17
2022-09-03T05:18:54.112Z,3.13
2022-09-03T05:21:22.311Z,2.60
2022-09-03T05:23:50.940Z,2.57
2022-09-03T05:26:21.284Z,3.07
2022-09-03T05:28:51.561Z,2.37
2022-09-03T05:31:21.598Z,2.83
2022-09-03T05:33:51.752Z,2.00
2022-09-03T05:36:23.049Z,2.30
2022-09-03T05:38:51.764Z,2.00
2022-09-03T05:41:19.250Z,2.20
2022-09-03T05:43:59.439Z,1.90
2022-09-03T05:46:33.521Z,2.20
2022-09-03T05:49:02.687Z,1.67
2022-09-03T05:51:30.714Z,1.90
2022-09-03T05:53:58.594Z,1.90
2022-09-03T05:56:28.155Z,2.17
2022-09-03T05:59:00.148Z,1.90
2022-09-03T06:01:30.982Z,1.35
2022-09-03T06:04:06.487Z,1.40
2022-09-03T06:06:36.065Z,1.13
2022-09-03T06:09:08.294Z,1.33
2022-09-03T06:11:37.597Z,1.40
2022-09-03T06:14:08.588Z,1.33
2022-09-03T06:16:38.982Z,1.07
2022-09-03T06:19:09.763Z,1.00
2022-09-03T06:21:42.730Z,1.17
2022-09-03T06:24:15.961Z,1.00
2022-09-03T06:26:43.889Z,1.30
2022-09-03T06:29:11.939Z,0.93
2022-09-03T06:31:39.951Z,1.42
2022-09-03T06:34:07.260Z,0.82
2022-09-03T06:36:34.748Z,0.80
2022-09-03T06:39:01.943Z,0.70
2022-09-03T06:41:32.586Z,1.02
2022-09-03T06:44:03.444Z,0.80
2022-09-03T06:46:36.150Z,0.90
2022-09-03T06:49:03.567Z,0.90
2022-09-03T06:51:32.065Z,0.80
2022-09-03T06:54:02.039Z,0.77
2022-09-03T06:56:29.959Z,0.85
2022-09-03T06:58:58.562Z,0.90
2022-09-03T07:01:28.397Z,0.60
2022-09-03T07:04:01.140Z,0.73
2022-09-03T07:06:33.647Z,0.88
2022-09-03T07:09:00.971Z,0.70
2022-09-03T07:11:30.870Z,0.60
2022-09-03T07:13:58.798Z,1.27
2022-09-03T07:16:29.272Z,0.60
2022-09-03T07:18:56.762Z,0.65
2022-09-03T07:21:26.096Z,0.68
2022-09-03T07:23:54.982Z,0.70
2022-09-03T07:26:23.484Z,0.65
2022-09-03T07:28:51.480Z,0.73
2022-09-03T07:31:27.475Z,0.77
2022-09-03T07:34:10.072Z,0.80
2022-09-03T07:36:42.879Z,0.68
2022-09-03T07:39:12.173Z,0.70
2022-09-03T07:41:45.141Z,0.60
2022-09-03T07:44:15.425Z,0.52
2022-09-03T07:46:45.491Z,0.60
2022-09-03T07:49:12.785Z,0.60
2022-09-03T07:51:39.913Z,0.60
2022-09-03T07:54:11.550Z,0.73
2022-09-03T07:56:40.646Z,0.50
2022-09-03T07:59:08.919Z,0.70
2022-09-03T08:01:36.974Z,0.70
2022-09-03T08:04:07.057Z,0.68
2022-09-03T08:06:38.372Z,0.50
2022-09-03T08:09:08.440Z,0.65
2022-09-03T08:11:40.569Z,0.77
2022-09-03T08:14:10.468Z,0.70
2022-09-03T08:16:56.154Z,0.40
2022-09-03T08:19:23.411Z,0.57
2022-09-03T08:21:50.458Z,0.40
2022-09-03T08:24:21.081Z,0.50
2022-09-03T08:26:51.980Z,0.57
2022-09-03T08:29:20.967Z,0.63
2022-09-03T08:31:48.256Z,0.52
2022-09-03T08:34:17.692Z,0.30
2022-09-03T08:36:47.173Z,0.55
2022-09-03T08:39:14.813Z,1.17
2022-09-03T08:41:50.744Z,0.52
2022-09-03T08:44:51.280Z,0.45
2022-09-03T08:47:39.465Z,0.55
2022-09-03T08:50:13.302Z,0.55
2022-09-03T08:52:50.946Z,0.60
2022-09-03T08:55:18.057Z,0.40
2022-09-03T08:57:49.616Z,0.35
2022-09-03T09:00:17.885Z,0.52
2022-09-03T09:03:23.282Z,0.50
2022-09-03T09:05:55.587Z,0.52
2022-09-03T09:08:51.768Z,0.40
2022-09-03T09:11:34.315Z,0.40
2022-09-03T09:14:04.009Z,0.40
2022-09-03T09:16:46.103Z,0.73
2022-09-03T09:19:34.449Z,0.75
2022-09-03T09:22:34.066Z,0.43
2022-09-03T09:25:09.060Z,0.30
2022-09-03T09:27:36.317Z,0.30
2022-09-03T09:30:05.300Z,0.50
2022-09-03T09:32:34.136Z,0.95
2022-09-03T09:35:01.435Z,0.40
2022-09-03T09:37:29.094Z,0.50
2022-09-03T09:40:00.952Z,0.60
2022-09-03T09:42:31.087Z,0.60
2022-09-03T09:45:09.457Z,0.90
2022-09-03T09:47:40.084Z,0.50
2022-09-03T09:50:24.991Z,0.50
2022-09-03T09:53:05.302Z,0.52
2022-09-03T09:55:32.865Z,0.50
2022-09-03T09:58:13.969Z,0.52
2022-09-03T10:00:43.234Z,0.50
2022-09-03T10:03:13.886Z,0.57
2022-09-03T10:05:41.040Z,0.63
2022-09-03T10:08:21.281Z,0.50
2022-09-03T10:10:51.245Z,0.47
2022-09-03T10:13:22.377Z,0.60
2022-09-03T10:15:57.145Z,0.60
2022-09-03T10:18:53.138Z,0.50
2022-09-03T10:21:54.616Z,0.40
2022-09-03T10:24:48.750Z,0.50
2022-09-03T10:27:18.815Z,0.55
2022-09-03T10:29:45.934Z,0.30
2022-09-03T10:32:39.352Z,0.50
2022-09-03T10:35:28.248Z,0.50
2022-09-03T10:38:34.639Z,0.40
2022-09-03T10:41:02.646Z,0.40
2022-09-03T10:43:44.899Z,0.55
2022-09-03T10:46:23.429Z,0.50
2022-09-03T10:49:14.213Z,0.40
2022-09-03T10:52:15.627Z,0.40
2022-09-03T10:54:52.123Z,0.60
2022-09-03T10:57:31.286Z,0.40
2022-09-03T11:00:05.630Z,0.55
2022-09-03T11:03:00.382Z,0.35
2022-09-03T11:05:38.846Z,0.60
2022-09-03T11:08:42.030Z,0.50
2022-09-03T11:11:26.720Z,0.50
2022-09-03T11:13:58.957Z,0.43
2022-09-03T11:16:34.124Z,0.50
2022-09-03T11:19:06.064Z,0.50
2022-09-03T11:21:37.786Z,0.63
2022-09-03T11:24:13.935Z,0.38
2022-09-03T11:27:13.622Z,0.47
2022-09-03T11:29:57.878Z,0.43
2022-09-03T11:32:31.393Z,0.40
2022-09-03T11:34:58.741Z,0.55
2022-09-03T11:37:28.012Z,0.30
2022-09-03T11:39:57.237Z,0.68
2022-09-03T11:42:28.975Z,0.55
2022-09-03T11:45:12.789Z,0.60
2022-09-03T11:47:43.782Z,0.55
2022-09-03T11:50:21.165Z,0.50
2022-09-03T11:52:51.864Z,0.40
2022-09-03T11:55:27.254Z,0.43
2022-09-03T11:57:54.549Z,0.38
2022-09-03T12:00:24.884Z,0.88
2022-09-03T12:02:59.260Z,0.70
2022-09-03T12:05:48.598Z,0.80
2022-09-03T12:08:37.110Z,0.50
2022-09-03T12:11:14.829Z,0.50
2022-09-03T12:13:47.801Z,0.50
2022-09-03T12:16:30.238Z,0.68
2022-09-03T12:19:04.606Z,1.27
2022-09-03T12:21:38.512Z,0.68
2022-09-03T12:24:05.990Z,0.60
2022-09-03T12:26:40.506Z,0.70
2022-09-03T12:29:20.296Z,0.40
2022-09-03T12:31:50.305Z,0.50
2022-09-03T12:34:20.140Z,0.50
2022-09-03T12:36:51.753Z,0.70
2022-09-03T12:40:04.866Z,0.82
2022-09-03T12:42:12.498Z,0.50
2022-09-03T12:44:42.637Z,0.63
2022-09-03T12:50:11.245Z,0.47
2022-09-03T12:52:45.096Z,0.50
2022-09-03T12:55:35.444Z,0.70
2022-09-03T12:58:14.062Z,0.57
2022-09-03T13:01:03.911Z,0.40
2022-09-03T13:03:39.983Z,0.43
2022-09-03T13:06:10.797Z,0.75
2022-09-03T13:08:46.430Z,0.63
2022-09-03T13:11:19.201Z,0.40
2022-09-03T13:13:55.432Z,0.70
2022-09-03T13:16:40.927Z,0.88
2022-09-03T13:19:38.898Z,0.80
2022-09-03T13:22:18.002Z,0.88
2022-09-03T13:25:14.729Z,0.57
2022-09-03T13:27:44.979Z,0.70
2022-09-03T13:30:17.337Z,0.77
2022-09-03T13:33:01.060Z,0.93
2022-09-03T13:35:44.914Z,0.43
2022-09-03T13:38:35.066Z,0.50
2022-09-03T13:41:22.505Z,0.80
2022-09-03T13:44:07.841Z,0.50
2022-09-03T13:46:50.519Z,0.50
2022-09-03T13:49:49.259Z,0.50
2022-09-03T13:52:31.701Z,0.73
2022-09-03T13:55:12.804Z,0.57
2022-09-03T13:58:05.005Z,0.70
2022-09-03T14:00:44.227Z,0.95
2022-09-03T14:03:36.451Z,0.95
2022-09-03T14:06:18.959Z,0.55
2022-09-03T14:09:23.741Z,0.68
2022-09-03T14:12:18.530Z,0.70
2022-09-03T14:14:53.669Z,0.50
2022-09-03T14:17:32.952Z,0.45
2022-09-03T14:20:26.672Z,0.52
2022-09-03T14:23:05.490Z,0.68
2022-09-03T14:25:33.481Z,0.88
2022-09-03T14:28:16.166Z,0.68
2022-09-03T14:30:49.271Z,0.80
2022-09-03T14:33:45.422Z,0.50
2022-09-03T14:36:24.372Z,0.70
2022-09-03T14:39:28.684Z,0.52
2022-09-03T14:42:24.021Z,0.47
2022-09-03T14:45:10.263Z,0.60
2022-09-03T14:47:40.046Z,0.52
2022-09-03T14:50:25.700Z,0.68
2022-09-03T14:53:24.765Z,0.70
2022-09-03T14:56:01.054Z,0.60
2022-09-03T14:58:37.132Z,0.50
2022-09-03T15:01:39.221Z,0.45
2022-09-03T15:04:12.701Z,0.50
2022-09-03T15:07:18.012Z,0.47
2022-09-03T15:10:04.844Z,0.70
2022-09-03T15:12:43.400Z,0.50
2022-09-03T15:15:19.736Z,0.45
2022-09-03T15:18:24.928Z,0.60
2022-09-03T15:20:54.632Z,0.60
2022-09-03T15:23:43.563Z,1.13
2022-09-03T15:26:29.363Z,0.52
2022-09-03T15:29:09.063Z,0.70
2022-09-03T15:31:54.224Z,0.80
2022-09-03T15:35:02.810Z,0.50
2022-09-03T15:37:39.208Z,1.08
2022-09-03T15:40:30.074Z,0.85
2022-09-03T15:43:09.203Z,0.50
2022-09-03T15:45:47.557Z,0.45
2022-09-03T15:48:19.170Z,0.50
2022-09-03T15:50:55.717Z,0.47
2022-09-03T15:53:31.822Z,0.80
2022-09-03T15:56:13.550Z,0.63
2022-09-03T15:59:02.123Z,0.82
2022-09-03T16:01:37.833Z,0.60
2022-09-03T16:04:16.954Z,0.52
2022-09-03T16:06:55.575Z,0.40
2022-09-03T16:09:34.725Z,0.45
2022-09-03T16:12:21.779Z,0.80
2022-09-03T16:15:12.123Z,0.45
2022-09-03T16:17:52.373Z,0.60
2022-09-03T16:20:23.830Z,1.00
2022-09-03T16:23:05.957Z,0.50
2022-09-03T16:25:47.925Z,0.60
2022-09-03T16:28:19.268Z,0.52
2022-09-03T16:31:04.177Z,0.65
2022-09-03T16:34:01.712Z,0.73
2022-09-03T16:36:49.396Z,0.77
2022-09-03T16:39:25.306Z,0.70
2022-09-03T16:42:14.606Z,0.80
2022-09-03T16:45:05.878Z,1.00
2022-09-03T16:47:45.543Z,0.93
2022-09-03T16:50:30.699Z,0.90
2022-09-03T16:53:15.266Z,0.80
2022-09-03T16:56:01.583Z,0.73
2022-09-03T16:58:46.155Z,0.73
2022-09-03T17:01:44.273Z,0.63
2022-09-03T17:04:30.195Z,0.90
2022-09-03T17:07:20.158Z,0.98
2022-09-03T17:10:16.930Z,0.75
2022-09-03T17:13:20.532Z,1.13
2022-09-03T17:16:27.570Z,1.00
2022-09-03T17:19:12.939Z,0.50
2022-09-03T17:22:24.331Z,1.02
2022-09-03T17:25:05.892Z,1.35
2022-09-03T17:27:38.845Z,1.30
2022-09-03T17:30:26.208Z,1.00
2022-09-03T17:33:03.294Z,1.17
2022-09-03T17:35:58.457Z,0.80
2022-09-03T17:38:25.626Z,1.20
2022-09-03T17:41:08.197Z,1.05
2022-09-03T17:44:01.530Z,1.25
2022-09-03T17:46:50.860Z,1.02
2022-09-03T17:49:28.026Z,1.52
2022-09-03T17:52:20.403Z,1.35
2022-09-03T17:54:57.002Z,1.10
2022-09-03T17:57:31.161Z,1.42
2022-09-03T18:00:08.188Z,1.20
2022-09-03T18:02:50.118Z,0.80
2022-09-03T18:05:23.994Z,1.65
2022-09-03T18:07:59.005Z,0.85
2022-09-03T18:10:39.811Z,1.60
2022-09-03T18:13:23.629Z,1.23
2022-09-03T18:16:04.024Z,1.50
2022-09-03T18:18:34.035Z,1.33
2022-09-03T18:21:29.024Z,1.45
2022-09-03T18:24:35.633Z,1.30
2022-09-03T18:27:28.552Z,1.40
2022-09-03T18:30:29.093Z,1.30
2022-09-03T18:33:15.375Z,1.40
2022-09-03T18:36:05.818Z,1.45
2022-09-03T18:38:57.105Z,1.50
2022-09-03T18:41:56.002Z,1.48
2022-09-03T18:45:18.627Z,1.42
2022-09-03T18:48:13.941Z,1.40
2022-09-03T18:51:23.772Z,1.30
2022-09-03T18:55:06.896Z,1.38
2022-09-03T18:58:26.154Z,1.60
2022-09-03T19:01:27.112Z,1.40
2022-09-03T19:04:43.060Z,2.65
2022-09-03T19:07:39.858Z,1.63
2022-09-03T19:10:32.995Z,1.60
2022-09-03T19:13:37.585Z,1.73
2022-09-03T19:16:52.791Z,1.50
2022-09-03T19:20:02.166Z,1.60
2022-09-03T19:22:54.891Z,1.70
2022-09-03T19:25:42.109Z,1.58
2022-09-03T19:28:38.188Z,1.98
2022-09-03T19:31:55.053Z,1.90
2022-09-03T19:34:52.437Z,2.97
2022-09-03T19:38:05.678Z,1.60
2022-09-03T19:40:57.102Z,2.00
2022-09-03T19:43:55.418Z,1.88
2022-09-03T19:47:10.966Z,2.13
2022-09-03T19:50:08.891Z,2.10
2022-09-03T19:53:00.482Z,2.15
2022-09-03T19:55:52.346Z,2.15
2022-09-03T19:58:43.937Z,2.33
2022-09-03T20:01:31.521Z,1.92
2022-09-03T20:04:31.698Z,1.80
2022-09-03T20:07:19.943Z,2.30
2022-09-03T20:10:07.101Z,1.98
2022-09-03T20:12:38.746Z,2.10
2022-09-03T20:15:07.820Z,2.40
2022-09-03T20:17:34.944Z,2.03
2022-09-03T20:20:29.742Z,2.05
2022-09-03T20:23:03.016Z,2.72
2022-09-03T20:25:38.446Z,2.20
2022-09-03T20:28:17.480Z,2.25
2022-09-03T20:31:01.565Z,2.17
2022-09-03T20:33:35.045Z,2.35
2022-09-03T20:36:32.722Z,2.28
2022-09-03T20:39:27.406Z,2.97
2022-09-03T20:42:09.750Z,2.78
2022-09-03T20:44:58.532Z,2.42
2022-09-03T20:47:26.649Z,2.22
2022-09-03T20:49:58.311Z,2.60
2022-09-03T20:52:45.805Z,2.13
2022-09-03T20:55:22.462Z,2.28
2022-09-03T20:58:11.110Z,2.03
2022-09-03T21:00:49.214Z,2.20
2022-09-03T21:03:21.793Z,2.33
2022-09-03T21:06:03.905Z,2.70
2022-09-03T21:08:55.982Z,3.35
2022-09-03T21:11:48.138Z,4.28
2022-09-03T21:14:39.338Z,4.23
2022-09-03T21:17:25.256Z,4.10
2022-09-03T21:20:13.426Z,3.80
2022-09-03T21:22:54.475Z,3.75
2022-09-03T21:25:30.238Z,3.38
2022-09-03T21:28:06.645Z,4.82
2022-09-03T21:30:40.753Z,3.38
2022-09-03T21:33:23.682Z,3.42
2022-09-03T21:35:58.230Z,3.30
2022-09-03T21:38:28.225Z,3.30
2022-09-03T21:40:59.395Z,3.85
2022-09-03T21:43:34.263Z,3.53
2022-09-03T21:46:17.251Z,3.08
2022-09-03T21:48:56.082Z,3.67
2022-09-03T21:51:57.589Z,4.20
2022-09-03T21:54:29.954Z,3.83
2022-09-03T21:57:22.109Z,3.78
2022-09-03T22:00:17.959Z,3.65
2022-09-03T22:02:47.333Z,2.95
2022-09-03T22:05:16.585Z,2.60
2022-09-03T22:08:14.618Z,2.78
2022-09-03T22:10:59.898Z,2.50
2022-09-03T22:13:38.093Z,2.78
2022-09-03T22:16:27.540Z,3.05
2022-09-03T22:18:55.023Z,3.13
2022-09-03T22:21:29.992Z,3.33
2022-09-03T22:24:19.075Z,3.10
2022-09-03T22:27:06.528Z,2.80
2022-09-03T22:29:51.510Z,2.90
2022-09-03T22:32:33.745Z,2.33
2022-09-03T22:35:10.055Z,2.70
2022-09-03T22:38:17.756Z,2.28
2022-09-03T22:41:21.739Z,2.30
2022-09-03T22:44:10.525Z,2.47
2022-09-03T22:47:07.616Z,2.47
2022-09-03T22:49:49.904Z,2.03
2022-09-03T22:52:41.852Z,2.65
2022-09-03T22:55:26.171Z,2.90
2022-09-03T22:58:25.090Z,2.60
2022-09-03T23:01:13.448Z,2.83
2022-09-03T23:03:48.422Z,1.73
2022-09-03T23:06:34.773Z,2.60
2022-09-03T23:09:09.462Z,2.57
2022-09-03T23:11:55.452Z,2.23
2022-09-03T23:14:28.394Z,2.83
2022-09-03T23:17:07.437Z,2.25
2022-09-03T23:19:41.085Z,2.30
2022-09-03T23:22:27.717Z,2.63
2022-09-03T23:25:03.405Z,2.70
2022-09-03T23:27:42.102Z,2.77
2022-09-03T23:30:09.414Z,2.87
2022-09-03T23:32:36.691Z,2.67
2022-09-03T23:35:11.822Z,2.60
2022-09-03T23:37:45.984Z,2.50
2022-09-03T23:40:34.574Z,2.30
2022-09-03T23:43:24.211Z,2.80
2022-09-03T23:46:12.570Z,2.47
2022-09-03T23:49:21.369Z,2.60
2022-09-03T23:52:33.029Z,2.30
2022-09-03T23:55:29.278Z,2.27
2022-09-03T23:58:20.322Z,2.73
